createdAt,value
2023-05-02T00:02:21.083Z,95081.81
2023-05-02T00:04:48.652Z,95092.91
2023-05-02T00:07:16.065Z,95087.38
2023-05-02T00:09:43.625Z,95071.88
2023-05-02T00:12:10.822Z,95063.56
2023-05-02T00:14:38.405Z,95076.72
2023-05-02T00:17:05.826Z,95075.19
2023-05-02T00:19:37.848Z,95067.78
2023-05-02T00:22:05.053Z,95080.72
2023-05-02T00:24:33.299Z,95081.75
2023-05-02T00:27:00.913Z,95061.19
2023-05-02T00:29:28.470Z,95070.72
2023-05-02T00:31:55.636Z,95077.19
2023-05-02T00:34:23.191Z,95073.88
2023-05-02T00:36:50.566Z,95072.38
2023-05-02T00:39:18.082Z,95069.47
2023-05-02T00:41:45.262Z,95077.72
2023-05-02T00:44:14.937Z,95060.94
2023-05-02T00:46:44.038Z,95071.59
2023-05-02T00:49:11.537Z,95087.38
2023-05-02T00:51:42.479Z,95081.88
2023-05-02T00:54:11.106Z,95077.63
2023-05-02T00:56:38.559Z,95079.38
2023-05-02T00:59:08.937Z,95080.91
2023-05-02T01:02:14.674Z,95091.31
2023-05-02T01:05:17.175Z,95076.50
2023-05-02T01:07:57.530Z,95080.28
2023-05-02T01:10:42.915Z,95083.19
2023-05-02T01:13:17.562Z,95085.38
2023-05-02T01:15:48.121Z,95084.41
2023-05-02T01:18:18.672Z,95088.47
2023-05-02T01:20:50.869Z,95085.09
2023-05-02T01:23:29.613Z,95087.63
2023-05-02T01:26:05.843Z,95073.88
2023-05-02T01:29:00.439Z,95079.97
2023-05-02T01:31:42.964Z,95067.06
2023-05-02T01:34:11.441Z,95059.59
2023-05-02T01:36:44.050Z,95068.44
2023-05-02T01:39:18.832Z,95073.13
2023-05-02T01:41:52.334Z,95070.47
2023-05-02T01:44:22.512Z,95082.91
2023-05-02T01:46:52.139Z,95084.25
2023-05-02T01:49:19.998Z,95080.09
2023-05-02T01:51:50.428Z,95083.97
2023-05-02T01:54:20.360Z,95083.53
2023-05-02T01:56:49.419Z,95084.03
2023-05-02T01:59:20.217Z,95082.47
2023-05-02T02:01:50.322Z,95084.34
2023-05-02T02:04:19.986Z,95083.63
2023-05-02T02:06:53.855Z,95083.41
2023-05-02T02:09:21.756Z,95087.19
2023-05-02T02:12:06.303Z,95086.41
2023-05-02T02:14:48.455Z,95087.34
2023-05-02T02:17:25.900Z,95087.94
2023-05-02T02:19:55.213Z,95088.00
2023-05-02T02:22:26.921Z,95088.94
2023-05-02T02:24:55.270Z,95096.22
2023-05-02T02:27:22.872Z,95101.19
2023-05-02T02:29:50.254Z,95105.84
2023-05-02T02:32:17.686Z,95100.88
2023-05-02T02:34:45.090Z,95103.19
2023-05-02T02:37:19.712Z,95101.78
2023-05-02T02:40:09.807Z,95098.22
2023-05-02T02:42:50.208Z,95102.38
2023-05-02T02:45:38.611Z,95095.19
2023-05-02T02:48:21.382Z,95097.59
2023-05-02T02:51:06.896Z,95100.94
2023-05-02T02:53:56.752Z,95098.06
2023-05-02T02:56:46.000Z,95099.84
2023-05-02T02:59:19.519Z,95102.94
2023-05-02T03:01:54.013Z,95107.47
2023-05-02T03:04:23.176Z,95105.97
2023-05-02T03:06:50.946Z,95101.91
2023-05-02T03:09:19.139Z,95103.53
2023-05-02T03:11:48.505Z,95104.22
2023-05-02T03:14:16.608Z,95102.84
2023-05-02T03:16:45.153Z,95098.09
2023-05-02T03:19:15.734Z,95105.72
2023-05-02T03:21:43.648Z,95108.41
2023-05-02T03:24:19.224Z,95110.34
2023-05-02T03:26:48.197Z,95110.47
2023-05-02T03:29:19.484Z,95104.00
2023-05-02T03:31:46.789Z,95102.94
2023-05-02T03:34:14.324Z,95115.22
2023-05-02T03:36:43.014Z,95106.19
2023-05-02T03:39:11.152Z,95113.00
2023-05-02T03:41:42.594Z,95121.00
2023-05-02T03:44:14.085Z,95125.25
2023-05-02T03:46:41.956Z,95123.88
2023-05-02T03:49:12.303Z,95119.00
2023-05-02T03:51:42.258Z,95126.19
2023-05-02T03:54:10.214Z,95119.34
2023-05-02T03:56:42.717Z,95124.19
2023-05-02T03:59:22.880Z,95123.84
2023-05-02T04:01:51.639Z,95121.28
2023-05-02T04:04:22.610Z,95119.88
2023-05-02T04:06:52.420Z,95110.25
2023-05-02T04:09:25.349Z,95099.31
2023-05-02T04:12:00.691Z,95116.72
2023-05-02T04:14:28.603Z,95110.94
2023-05-02T04:16:57.304Z,95102.78
2023-05-02T04:19:39.684Z,95101.94
2023-05-02T04:22:07.128Z,95106.81
2023-05-02T04:24:38.429Z,95106.84
2023-05-02T04:27:05.752Z,95121.16
2023-05-02T04:29:33.644Z,95113.50
2023-05-02T04:32:01.643Z,95120.97
2023-05-02T04:34:30.561Z,95116.59
2023-05-02T04:36:57.832Z,95118.84
2023-05-02T04:39:26.910Z,95108.63
2023-05-02T04:42:07.642Z,95124.16
2023-05-02T04:44:42.321Z,95118.56
2023-05-02T04:47:10.033Z,95115.31
2023-05-02T04:49:37.511Z,95115.75
2023-05-02T04:52:04.956Z,95120.59
2023-05-02T04:54:34.832Z,95116.28
2023-05-02T04:57:03.814Z,95114.31
2023-05-02T04:59:35.171Z,95109.22
2023-05-02T05:02:03.829Z,95094.84
2023-05-02T05:04:31.736Z,95111.09
2023-05-02T05:06:59.107Z,95133.16
2023-05-02T05:09:30.507Z,95125.13
2023-05-02T05:11:57.712Z,95115.47
2023-05-02T05:14:25.552Z,95123.53
2023-05-02T05:16:54.994Z,95122.88
2023-05-02T05:19:23.348Z,95117.88
2023-05-02T05:21:51.176Z,95117.00
2023-05-02T05:24:20.161Z,95135.19
2023-05-02T05:26:47.969Z,95132.81
2023-05-02T05:29:15.827Z,95138.25
2023-05-02T05:31:44.174Z,95139.09
2023-05-02T05:34:14.990Z,95129.09
2023-05-02T05:36:43.308Z,95138.47
2023-05-02T05:39:13.434Z,95138.13
2023-05-02T05:41:43.439Z,95133.13
2023-05-02T05:44:12.607Z,95129.50
2023-05-02T05:46:39.922Z,95133.09
2023-05-02T05:49:10.065Z,95138.97
2023-05-02T05:51:37.665Z,95140.84
2023-05-02T05:54:05.249Z,95151.09
2023-05-02T05:56:32.991Z,95140.50
2023-05-02T05:59:09.432Z,95143.56
2023-05-02T06:01:38.323Z,95146.91
2023-05-02T06:04:07.604Z,95140.16
2023-05-02T06:06:38.255Z,95156.38
2023-05-02T06:09:06.164Z,95156.66
2023-05-02T06:11:33.946Z,95148.38
2023-05-02T06:14:01.996Z,95148.97
2023-05-02T06:16:29.203Z,95147.13
2023-05-02T06:18:56.857Z,95149.81
2023-05-02T06:21:24.087Z,95155.97
2023-05-02T06:23:51.705Z,95153.81
2023-05-02T06:26:18.958Z,95160.19
2023-05-02T06:28:46.532Z,95159.59
2023-05-02T06:31:13.746Z,95161.34
2023-05-02T06:33:41.323Z,95132.69
2023-05-02T06:36:08.700Z,95145.72
2023-05-02T06:38:36.235Z,95135.78
2023-05-02T06:41:03.440Z,95139.13
2023-05-02T06:43:31.041Z,95146.00
2023-05-02T06:45:58.986Z,95150.81
2023-05-02T06:48:26.519Z,95160.22
2023-05-02T06:50:54.481Z,95149.69
2023-05-02T06:53:22.072Z,95149.56
2023-05-02T06:55:49.967Z,95149.72
2023-05-02T06:58:17.553Z,95146.13
2023-05-02T07:00:44.804Z,95148.97
2023-05-02T07:03:13.288Z,95151.88
2023-05-02T07:05:40.646Z,95151.28
2023-05-02T07:08:09.220Z,95136.41
2023-05-02T07:10:36.762Z,95140.31
2023-05-02T07:13:04.431Z,95145.50
2023-05-02T07:15:31.785Z,95137.38
2023-05-02T07:17:59.419Z,95127.00
2023-05-02T07:20:26.733Z,95137.72
2023-05-02T07:25:45.650Z,95128.88
2023-05-02T07:28:13.213Z,95133.09
2023-05-02T07:30:40.428Z,95123.06
2023-05-02T07:33:08.240Z,95137.13
2023-05-02T07:35:35.790Z,95132.97
2023-05-02T07:38:03.299Z,95139.28
2023-05-02T07:40:30.643Z,95138.34
2023-05-02T07:43:01.197Z,95127.28
2023-05-02T07:45:29.757Z,95132.94
2023-05-02T07:47:57.408Z,95141.47
2023-05-02T07:50:24.768Z,95132.75
2023-05-02T07:52:53.061Z,95134.47
2023-05-02T07:55:21.714Z,95136.81
2023-05-02T07:57:49.281Z,95136.72
2023-05-02T08:00:17.091Z,95130.38
2023-05-02T08:02:46.500Z,95130.41
2023-05-02T08:05:13.932Z,95111.25
2023-05-02T08:07:41.615Z,95121.22
2023-05-02T08:10:11.574Z,95115.63
2023-05-02T08:12:42.148Z,95112.53
2023-05-02T08:15:12.702Z,95124.31
2023-05-02T08:17:40.766Z,95108.97
2023-05-02T08:20:08.570Z,95103.19
2023-05-02T08:22:36.270Z,95108.91
2023-05-02T08:25:06.140Z,95105.78
2023-05-02T08:27:36.351Z,95091.69
2023-05-02T08:30:09.168Z,95104.31
2023-05-02T08:32:38.779Z,95098.41
2023-05-02T08:35:07.372Z,95078.06
2023-05-02T08:37:37.134Z,95084.28
2023-05-02T08:40:06.000Z,95092.16
2023-05-02T08:42:34.973Z,95081.34
2023-05-02T08:45:02.933Z,95087.03
2023-05-02T08:47:32.662Z,95088.81
2023-05-02T08:50:01.166Z,95082.69
2023-05-02T08:52:30.752Z,95075.50
2023-05-02T08:55:01.195Z,95082.78
2023-05-02T08:57:32.473Z,95087.13
2023-05-02T08:59:59.803Z,95071.84
2023-05-02T09:02:43.846Z,95079.66
2023-05-02T09:05:12.832Z,95064.63
2023-05-02T09:07:48.706Z,95066.94
2023-05-02T09:10:16.360Z,95073.03
2023-05-02T09:12:44.191Z,95068.94
2023-05-02T09:15:11.881Z,95064.00
2023-05-02T09:17:41.388Z,95062.88
2023-05-02T09:20:09.732Z,95071.34
2023-05-02T09:22:38.724Z,95071.00
2023-05-02T09:25:07.668Z,95069.19
2023-05-02T09:27:52.570Z,95072.19
2023-05-02T09:30:24.420Z,95071.19
2023-05-02T09:32:56.959Z,95070.31
2023-05-02T09:35:24.944Z,95053.09
2023-05-02T09:37:59.543Z,95067.53
2023-05-02T09:40:28.237Z,95062.16
2023-05-02T09:42:56.696Z,95059.38
2023-05-02T09:45:26.166Z,95057.34
2023-05-02T09:47:54.239Z,95059.94
2023-05-02T09:50:39.186Z,95054.28
2023-05-02T09:53:09.991Z,95062.75
2023-05-02T09:55:37.803Z,95059.31
2023-05-02T09:58:06.902Z,95057.88
2023-05-02T10:00:44.900Z,95068.75
2023-05-02T10:03:20.694Z,95053.34
2023-05-02T10:05:48.054Z,95060.09
2023-05-02T10:08:19.042Z,95060.34
2023-05-02T10:10:54.019Z,95062.56
2023-05-02T10:13:24.628Z,95048.03
2023-05-02T10:16:00.976Z,95059.63
2023-05-02T10:18:39.187Z,95050.81
2023-05-02T10:21:10.887Z,95055.41
2023-05-02T10:23:45.996Z,95040.44
2023-05-02T10:26:17.692Z,95043.44
2023-05-02T10:28:46.222Z,95049.41
2023-05-02T10:31:15.159Z,95047.97
2023-05-02T10:33:46.365Z,95062.88
2023-05-02T10:36:14.018Z,95057.28
2023-05-02T10:38:42.712Z,95063.69
2023-05-02T10:41:15.007Z,95066.75
2023-05-02T10:43:47.977Z,95065.50
2023-05-02T10:46:34.587Z,95072.00
2023-05-02T10:49:08.543Z,95075.59
2023-05-02T10:51:39.365Z,95075.25
2023-05-02T10:54:23.914Z,95090.47
2023-05-02T10:57:06.770Z,95090.88
2023-05-02T10:59:38.710Z,95107.94
2023-05-02T11:02:28.404Z,95107.50
2023-05-02T11:05:06.674Z,95123.00
2023-05-02T11:07:39.392Z,95118.19
2023-05-02T11:10:22.150Z,95124.38
2023-05-02T11:12:54.056Z,95115.41
2023-05-02T11:15:32.917Z,95134.69
2023-05-02T11:18:08.040Z,95119.97
2023-05-02T11:20:37.474Z,95129.63
2023-05-02T11:23:22.954Z,95128.03
2023-05-02T11:25:52.735Z,95131.75
2023-05-02T11:28:38.681Z,95133.50
2023-05-02T11:31:30.845Z,95104.31
2023-05-02T11:34:03.093Z,95114.03
2023-05-02T11:36:33.947Z,95112.84
2023-05-02T11:39:08.127Z,95121.34
2023-05-02T11:41:47.139Z,95116.06
2023-05-02T11:44:14.662Z,95103.72
2023-05-02T11:46:42.888Z,95112.38
2023-05-02T11:49:14.893Z,95110.59
2023-05-02T11:51:43.131Z,95114.72
2023-05-02T11:54:19.358Z,95098.00
2023-05-02T11:56:48.396Z,95100.53
2023-05-02T11:59:15.766Z,95095.09
2023-05-02T12:01:51.283Z,95082.13
2023-05-02T12:04:22.241Z,95081.47
2023-05-02T12:06:58.915Z,95081.69
2023-05-02T12:09:26.622Z,95072.06
2023-05-02T12:11:55.092Z,95076.63
2023-05-02T12:14:33.779Z,95072.59
2023-05-02T12:17:04.532Z,95072.63
2023-05-02T12:19:37.374Z,95067.66
2023-05-02T12:22:06.419Z,95063.75
2023-05-02T12:24:34.572Z,95056.63
2023-05-02T12:27:13.954Z,95056.03
2023-05-02T12:29:41.930Z,95048.38
2023-05-02T12:32:10.821Z,95048.00
2023-05-02T12:34:39.232Z,95055.25
2023-05-02T12:37:08.348Z,95061.97
2023-05-02T12:39:43.631Z,95050.22
2023-05-02T12:42:16.893Z,95047.09
2023-05-02T12:44:46.343Z,95037.63
2023-05-02T12:47:15.888Z,95042.25
2023-05-02T12:49:57.909Z,95027.72
2023-05-02T12:52:47.144Z,95048.28
2023-05-02T12:55:22.019Z,95046.72
2023-05-02T12:57:49.784Z,95043.44
2023-05-02T13:00:18.421Z,95063.44
2023-05-02T13:02:47.714Z,95058.06
2023-05-02T13:05:16.017Z,95064.81
2023-05-02T13:07:43.735Z,95059.47
2023-05-02T13:10:14.776Z,95062.53
2023-05-02T13:12:44.434Z,95068.56
2023-05-02T13:15:13.624Z,95053.94
2023-05-02T13:17:41.657Z,95054.28
2023-05-02T13:20:09.722Z,95063.97
2023-05-02T13:22:40.046Z,95072.09
2023-05-02T13:25:09.057Z,95062.47
2023-05-02T13:27:37.745Z,95061.31
2023-05-02T13:30:08.766Z,95057.25
2023-05-02T13:32:36.883Z,95054.38
2023-05-02T13:35:04.391Z,95053.38
2023-05-02T13:37:32.595Z,95061.38
2023-05-02T13:40:00.134Z,95058.97
2023-05-02T13:42:28.007Z,95061.88
2023-05-02T13:44:55.235Z,95051.03
2023-05-02T13:47:22.962Z,95070.75
2023-05-02T13:49:50.707Z,95071.19
2023-05-02T13:52:18.486Z,95089.84
2023-05-02T13:54:45.884Z,95084.84
2023-05-02T13:57:13.579Z,95117.78
2023-05-02T13:59:41.122Z,95096.34
2023-05-02T14:02:09.023Z,95095.28
2023-05-02T14:04:36.336Z,95092.63
2023-05-02T14:07:04.108Z,95082.81
2023-05-02T14:09:32.191Z,95076.97
2023-05-02T14:12:00.135Z,95073.88
2023-05-02T14:14:27.533Z,95081.75
2023-05-02T14:16:58.651Z,95058.63
2023-05-02T14:19:28.882Z,95079.38
2023-05-02T14:21:57.311Z,95060.22
2023-05-02T14:24:24.752Z,95053.72
2023-05-02T14:26:52.330Z,95050.53
2023-05-02T14:29:20.063Z,95055.22
2023-05-02T14:31:47.984Z,95054.00
2023-05-02T14:34:15.720Z,95047.59
2023-05-02T14:36:43.690Z,95045.75
2023-05-02T14:39:13.275Z,95061.53
2023-05-02T14:41:40.958Z,95044.25
2023-05-02T14:44:08.380Z,95049.72
2023-05-02T14:46:36.095Z,95052.22
2023-05-02T14:49:03.419Z,95055.91
2023-05-02T14:51:32.196Z,95048.38
2023-05-02T14:54:00.172Z,95053.84
2023-05-02T14:56:28.371Z,95057.25
2023-05-02T14:58:55.821Z,95057.69
2023-05-02T15:01:23.751Z,95066.66
2023-05-02T15:04:05.927Z,95057.06
2023-05-02T15:06:36.427Z,95053.47
2023-05-02T15:09:05.243Z,95068.59
2023-05-02T15:11:33.143Z,95069.06
2023-05-02T15:14:00.531Z,95075.22
2023-05-02T15:16:28.230Z,95084.81
2023-05-02T15:18:55.901Z,95084.56
2023-05-02T15:21:23.785Z,95084.69
2023-05-02T15:23:51.186Z,95089.06
2023-05-02T15:26:19.041Z,95079.22
2023-05-02T15:28:46.415Z,95081.50
2023-05-02T15:31:15.198Z,95088.38
2023-05-02T15:33:44.565Z,95096.94
2023-05-02T15:36:14.604Z,95105.94
2023-05-02T15:38:43.153Z,95106.25
2023-05-02T15:41:11.782Z,95107.47
2023-05-02T15:43:39.172Z,95111.72
2023-05-02T15:46:06.772Z,95125.09
2023-05-02T15:48:35.087Z,95132.31
2023-05-02T15:51:09.860Z,95132.44
2023-05-02T15:53:39.776Z,95154.19
2023-05-02T15:56:13.531Z,95146.81
2023-05-02T15:58:40.954Z,95160.53
2023-05-02T16:01:08.716Z,95148.03
2023-05-02T16:03:36.786Z,95176.69
2023-05-02T16:06:07.942Z,95187.84
2023-05-02T16:08:36.142Z,95199.13
2023-05-02T16:11:06.008Z,95201.41
2023-05-02T16:13:33.406Z,95195.81
2023-05-02T16:16:01.128Z,95198.94
2023-05-02T16:18:28.732Z,95206.88
2023-05-02T16:20:59.996Z,95201.84
2023-05-02T16:23:27.466Z,95194.59
2023-05-02T16:25:59.177Z,95204.56
2023-05-02T16:28:26.717Z,95201.63
2023-05-02T16:30:55.713Z,95206.69
2023-05-02T16:33:23.375Z,95205.13
2023-05-02T16:36:01.944Z,95200.25
2023-05-02T16:38:29.763Z,95204.44
2023-05-02T16:40:57.788Z,95206.06
2023-05-02T16:43:25.521Z,95197.44
2023-05-02T16:46:04.244Z,95199.16
2023-05-02T16:48:32.470Z,95207.00
2023-05-02T16:51:03.290Z,95205.09
2023-05-02T16:53:33.682Z,95215.56
2023-05-02T16:56:02.009Z,95221.47
2023-05-02T17:06:27.109Z,95224.97
2023-05-02T17:08:54.807Z,95222.78
2023-05-02T17:11:23.230Z,95218.66
2023-05-02T17:13:52.815Z,95214.53
2023-05-02T17:16:23.118Z,95222.84
2023-05-02T17:18:50.952Z,95229.19
2023-05-02T17:21:18.384Z,95222.16
2023-05-02T17:23:46.157Z,95236.59
2023-05-02T17:26:16.736Z,95237.19
2023-05-02T17:28:45.219Z,95233.59
2023-05-02T17:31:13.282Z,95246.50
2023-05-02T17:33:42.556Z,95250.63
2023-05-02T17:36:10.010Z,95256.94
2023-05-02T17:38:37.912Z,95257.66
2023-05-02T17:41:06.232Z,95264.63
2023-05-02T17:43:33.932Z,95270.34
2023-05-02T17:46:07.896Z,95264.78
2023-05-02T17:48:37.101Z,95273.94
2023-05-02T17:51:05.093Z,95267.44
2023-05-02T17:53:33.878Z,95277.53
2023-05-02T17:56:03.464Z,95276.56
2023-05-02T17:58:32.161Z,95281.34
2023-05-02T18:01:10.393Z,95275.09
2023-05-02T18:03:38.975Z,95285.38
2023-05-02T18:06:06.797Z,95291.81
2023-05-02T18:08:34.704Z,95294.84
2023-05-02T18:11:05.138Z,95289.16
2023-05-02T18:13:33.235Z,95305.16
2023-05-02T18:16:04.988Z,95312.41
2023-05-02T18:18:33.420Z,95316.16
2023-05-02T18:21:09.891Z,95311.44
2023-05-02T18:23:37.941Z,95307.50
2023-05-02T18:26:12.126Z,95325.41
2023-05-02T18:28:42.709Z,95326.09
2023-05-02T18:31:17.906Z,95329.78
2023-05-02T18:33:47.166Z,95342.25
2023-05-02T18:36:19.371Z,95336.47
2023-05-02T18:38:47.280Z,95335.94
2023-05-02T18:41:14.536Z,95344.31
2023-05-02T18:43:42.355Z,95334.47
2023-05-02T18:46:09.956Z,95342.53
2023-05-02T18:48:37.667Z,95338.84
2023-05-02T18:51:05.320Z,95334.75
2023-05-02T18:53:33.798Z,95343.44
2023-05-02T18:56:01.356Z,95338.66
2023-05-02T18:58:29.241Z,95347.97
2023-05-02T19:00:57.523Z,95356.72
2023-05-02T19:03:27.034Z,95353.50
2023-05-02T19:05:54.481Z,95362.00
2023-05-02T19:08:24.078Z,95354.09
2023-05-02T19:10:51.759Z,95358.69
2023-05-02T19:13:20.573Z,95369.28
2023-05-02T19:15:48.450Z,95372.47
2023-05-02T19:18:17.598Z,95374.06
2023-05-02T19:20:46.803Z,95372.41
2023-05-02T19:23:20.298Z,95368.97
2023-05-02T19:25:47.953Z,95375.59
2023-05-02T19:28:18.686Z,95380.13
2023-05-02T19:30:47.093Z,95357.81
2023-05-02T19:33:14.793Z,95371.84
2023-05-02T19:35:42.612Z,95364.88
2023-05-02T19:38:10.244Z,95379.88
2023-05-02T19:40:37.502Z,95368.72
2023-05-02T19:43:05.205Z,95378.47
2023-05-02T19:52:04.669Z,95371.13
2023-05-02T19:54:33.564Z,95382.81
2023-05-02T19:57:02.963Z,95383.38
2023-05-02T19:59:30.614Z,95388.22
2023-05-02T20:01:58.954Z,95390.38
2023-05-02T20:04:27.957Z,95386.38
2023-05-02T20:06:55.437Z,95376.72
2023-05-02T20:09:23.203Z,95388.59
2023-05-02T20:11:50.351Z,95390.50
2023-05-02T20:14:19.046Z,95384.56
2023-05-02T20:16:46.527Z,95388.84
2023-05-02T20:19:14.297Z,95384.56
2023-05-02T20:21:41.607Z,95370.69
2023-05-02T20:24:09.193Z,95385.88
2023-05-02T20:26:37.550Z,95377.28
2023-05-02T20:29:05.240Z,95386.06
2023-05-02T20:31:32.719Z,95386.16
2023-05-02T20:34:00.563Z,95386.22
2023-05-02T20:36:29.545Z,95374.91
2023-05-02T20:38:58.035Z,95397.44
2023-05-02T20:41:27.017Z,95387.00
2023-05-02T20:43:55.414Z,95388.38
2023-05-02T20:46:25.938Z,95395.13
2023-05-02T20:48:53.865Z,95400.06
2023-05-02T20:51:21.690Z,95400.69
2023-05-02T20:53:49.348Z,95399.84
2023-05-02T20:56:16.732Z,95403.13
2023-05-02T20:58:44.488Z,95409.38
2023-05-02T21:01:12.377Z,95401.88
2023-05-02T21:03:41.366Z,95416.72
2023-05-02T21:06:10.313Z,95413.13
2023-05-02T21:08:38.073Z,95408.03
2023-05-02T21:11:15.291Z,95407.19
2023-05-02T21:13:43.932Z,95416.44
2023-05-02T21:16:18.844Z,95420.75
2023-05-02T21:18:47.683Z,95420.91
2023-05-02T21:21:15.135Z,95421.25
2023-05-02T21:23:42.828Z,95430.78
2023-05-02T21:26:10.265Z,95426.97
2023-05-02T21:28:38.901Z,95427.25
2023-05-02T21:31:07.936Z,95421.44
2023-05-02T21:33:36.000Z,95436.56
2023-05-02T21:36:03.849Z,95436.59
2023-05-02T21:38:31.552Z,95432.31
2023-05-02T21:41:03.425Z,95428.00
2023-05-02T21:43:34.256Z,95423.88
2023-05-02T21:46:01.820Z,95431.91
2023-05-02T21:48:29.751Z,95424.50
2023-05-02T21:50:57.132Z,95433.22
2023-05-02T21:53:25.019Z,95432.63
2023-05-02T21:55:52.916Z,95424.47
2023-05-02T21:58:20.709Z,95422.22
2023-05-02T22:00:48.082Z,95423.09
2023-05-02T22:03:16.003Z,95427.97
2023-05-02T22:05:45.670Z,95439.00
2023-05-02T22:08:13.699Z,95430.94
2023-05-02T22:10:42.950Z,95438.47
2023-05-02T22:13:12.858Z,95443.97
2023-05-02T22:15:43.210Z,95442.38
2023-05-02T22:18:11.054Z,95445.09
2023-05-02T22:20:38.291Z,95448.22
2023-05-02T22:23:06.029Z,95456.88
2023-05-02T22:25:33.312Z,95452.25
2023-05-02T22:28:04.141Z,95445.28
2023-05-02T22:30:31.655Z,95454.97
2023-05-02T22:32:59.263Z,95450.13
2023-05-02T22:35:26.911Z,95452.25
2023-05-02T22:37:54.660Z,95462.25
2023-05-02T22:40:21.857Z,95457.66
2023-05-02T22:42:51.527Z,95462.44
2023-05-02T22:45:18.863Z,95466.00
2023-05-02T22:47:46.478Z,95477.72
2023-05-02T22:50:14.517Z,95478.31
2023-05-02T22:52:42.592Z,95471.63
2023-05-02T22:55:10.106Z,95467.38
2023-05-02T22:57:38.094Z,95470.28
2023-05-02T23:00:07.591Z,95471.34
2023-05-02T23:02:36.110Z,95464.34
2023-05-02T23:05:07.237Z,95468.91
2023-05-02T23:07:34.831Z,95472.41
2023-05-02T23:10:02.350Z,95461.31
2023-05-02T23:12:30.261Z,95453.00
2023-05-02T23:14:58.158Z,95461.84
2023-05-02T23:17:26.011Z,95461.03
2023-05-02T23:19:53.150Z,95457.28
2023-05-02T23:22:20.655Z,95456.75
2023-05-02T23:24:48.196Z,95455.44
2023-05-02T23:27:15.840Z,95444.34
2023-05-02T23:29:43.069Z,95446.50
2023-05-02T23:32:13.163Z,95454.53
2023-05-02T23:34:41.454Z,95455.91
2023-05-02T23:37:09.502Z,95438.72
2023-05-02T23:39:36.772Z,95443.75
2023-05-02T23:42:04.589Z,95460.63
2023-05-02T23:44:31.869Z,95462.00
2023-05-02T23:47:00.226Z,95454.44
2023-05-02T23:49:27.543Z,95458.78
2023-05-02T23:51:55.030Z,95451.50
2023-05-02T23:54:25.282Z,95461.47
2023-05-02T23:56:53.762Z,95448.81
2023-05-02T23:59:20.868Z,95460.09
